Time;durP1;ratioP1;P1;durP2;ratioP2;P2;SDS_P1;SDS_P2;PMS_P1;PMS_P2;Temp;Humidity;BMP_temperature;BMP_pressure;BME280_temperature;BME280_humidity;BME280_pressure;Samples;Min_cycle;Max_cycle;Signal;HPM_P1;HPM_P2
2022/06/29 00:01:56;;;;;;;0.40;0.40;;;23.30;52.20;;;;;;6269020;28;20498;-65
2022/06/29 00:04:57;;;;;;;0.40;0.30;;;23.30;52.20;;;;;;6268508;28;20566;-66
2022/06/29 00:07:57;;;;;;;0.40;0.35;;;23.30;52.20;;;;;;6268804;28;20178;-65
2022/06/29 00:10:58;;;;;;;0.40;0.40;;;23.30;52.20;;;;;;6268048;28;20556;-65
2022/06/29 00:13:59;;;;;;;0.82;0.45;;;23.30;52.20;;;;;;6268721;28;20071;-65
2022/06/29 00:17:00;;;;;;;0.32;0.30;;;23.30;52.20;;;;;;6267929;28;20021;-65
2022/06/29 00:20:03;;;;;;;0.38;0.38;;;23.30;52.20;;;;;;6268521;28;20036;-65
2022/06/29 00:23:04;;;;;;;0.50;0.50;;;23.30;52.20;;;;;;6269148;28;20029;-65
2022/06/29 00:26:04;;;;;;;0.82;0.43;;;23.30;52.20;;;;;;6267714;28;20725;-65
2022/06/29 00:29:06;;;;;;;0.50;0.40;;;23.30;52.30;;;;;;6268994;28;20436;-65
2022/06/29 00:32:07;;;;;;;0.50;0.35;;;23.30;52.20;;;;;;6267493;28;20062;-65
2022/06/29 00:35:09;;;;;;;0.30;0.30;;;23.30;52.20;;;;;;6267795;28;20017;-65
2022/06/29 00:38:10;;;;;;;0.60;0.50;;;23.30;52.30;;;;;;6269142;28;20029;-65
2022/06/29 00:41:10;;;;;;;0.57;0.57;;;23.30;52.30;;;;;;6269317;28;20029;-65
2022/06/29 00:44:18;;;;;;;0.35;0.30;;;23.30;52.30;;;;;;6267456;28;20091;-66
2022/06/29 00:47:19;;;;;;;0.40;0.40;;;23.30;52.30;;;;;;6267503;28;20078;-65
2022/06/29 00:50:20;;;;;;;0.57;0.52;;;23.30;52.30;;;;;;6268539;28;20100;-64
2022/06/29 00:53:23;;;;;;;0.30;0.30;;;23.30;52.30;;;;;;6267938;28;20024;-65
2022/06/29 00:56:25;;;;;;;0.38;0.38;;;23.30;52.30;;;;;;6267377;28;20615;-65
2022/06/29 00:59:27;;;;;;;0.80;0.38;;;23.30;52.30;;;;;;6267718;28;20527;-65
2022/06/29 01:02:33;;;;;;;0.50;0.40;;;23.30;52.30;;;;;;6267324;28;20398;-65
2022/06/29 01:05:34;;;;;;;0.30;0.30;;;23.30;52.30;;;;;;6267957;28;20065;-65
2022/06/29 01:08:35;;;;;;;0.40;0.40;;;23.30;52.30;;;;;;6267267;28;20017;-65
2022/06/29 01:11:36;;;;;;;0.40;0.40;;;23.30;52.30;;;;;;6267114;28;20025;-65
2022/06/29 01:14:39;;;;;;;0.50;0.43;;;23.30;52.30;;;;;;6267054;28;20027;-65
2022/06/29 01:17:40;;;;;;;0.70;0.50;;;23.30;52.30;;;;;;6266900;28;20052;-65
2022/06/29 01:20:41;;;;;;;0.40;0.40;;;23.30;52.30;;;;;;6266915;28;20508;-65
2022/06/29 01:23:41;;;;;;;0.43;0.40;;;23.30;52.30;;;;;;6266903;28;20383;-65
2022/06/29 01:26:42;;;;;;;0.30;0.28;;;23.30;52.30;;;;;;6266810;28;20029;-65
2022/06/29 01:29:45;;;;;;;0.55;0.43;;;23.30;52.30;;;;;;6266530;28;20120;-64
2022/06/29 01:32:45;;;;;;;0.60;0.40;;;23.30;52.30;;;;;;6266617;28;20021;-65
2022/06/29 01:35:46;;;;;;;0.40;0.40;;;23.30;52.30;;;;;;6266718;28;20021;-65
2022/06/29 01:38:47;;;;;;;0.50;0.50;;;23.30;52.40;;;;;;6265753;28;20083;-66
2022/06/29 01:41:48;;;;;;;0.20;0.20;;;23.30;52.30;;;;;;6266301;28;20474;-65
2022/06/29 01:44:49;;;;;;;0.70;0.40;;;23.30;52.40;;;;;;6266177;28;20048;-65
2022/06/29 01:47:50;;;;;;;0.57;0.40;;;23.30;52.40;;;;;;6267546;28;20033;-67
2022/06/29 01:50:50;;;;;;;0.30;0.30;;;23.30;52.40;;;;;;6268020;28;20035;-65
2022/06/29 01:53:51;;;;;;;0.75;0.55;;;23.30;52.40;;;;;;6268201;28;20559;-65
2022/06/29 01:56:52;;;;;;;0.25;0.25;;;23.30;52.40;;;;;;6268568;28;20024;-67
2022/06/29 01:59:53;;;;;;;1.30;0.40;;;23.30;52.40;;;;;;6267020;28;20426;-67
2022/06/29 02:02:53;;;;;;;0.35;0.35;;;23.20;52.30;;;;;;6267322;28;20029;-67
2022/06/29 02:05:54;;;;;;;0.80;0.40;;;23.20;52.30;;;;;;6268376;28;20514;-65
2022/06/29 02:08:55;;;;;;;0.30;0.30;;;23.30;52.40;;;;;;6267656;28;20025;-67
2022/06/29 02:11:56;;;;;;;0.40;0.30;;;23.20;52.30;;;;;;6266774;28;20029;-66
2022/06/29 02:14:56;;;;;;;0.60;0.55;;;23.30;52.40;;;;;;6267502;28;20036;-65
2022/06/29 02:17:57;;;;;;;0.30;0.30;;;23.30;52.40;;;;;;6266976;28;20028;-65
2022/06/29 02:20:58;;;;;;;0.30;0.30;;;23.30;52.40;;;;;;6265612;28;20804;-65
2022/06/29 02:23:58;;;;;;;0.40;0.38;;;23.20;52.30;;;;;;6265483;28;20028;-65
2022/06/29 02:26:59;;;;;;;0.20;0.20;;;23.20;52.30;;;;;;6266190;28;20561;-65
2022/06/29 02:30:00;;;;;;;0.55;0.40;;;23.20;52.30;;;;;;6265830;28;20033;-65
2022/06/29 02:36:20;;;;;;;0.30;0.30;;;23.30;52.50;;;;;;6267128;28;20021;-65
2022/06/29 02:39:21;;;;;;;0.40;0.40;;;23.20;52.40;;;;;;6267379;28;20500;-65
2022/06/29 02:42:22;;;;;;;0.30;0.30;;;23.30;52.50;;;;;;6267299;28;20025;-65
2022/06/29 02:45:23;;;;;;;0.30;0.30;;;23.20;52.40;;;;;;6266318;28;20115;-65
2022/06/29 02:48:24;;;;;;;0.40;0.40;;;23.20;52.40;;;;;;6266989;28;20108;-65
2022/06/29 02:51:25;;;;;;;0.35;0.30;;;23.30;52.50;;;;;;6270522;28;20021;-65
2022/06/29 02:54:26;;;;;;;0.30;0.28;;;23.20;52.40;;;;;;6270221;28;20071;-64
2022/06/29 02:57:27;;;;;;;0.32;0.30;;;23.30;52.50;;;;;;6271229;28;20024;-65
2022/06/29 03:00:27;;;;;;;0.60;0.40;;;23.20;52.40;;;;;;6270343;28;20501;-65
2022/06/29 03:03:28;;;;;;;0.30;0.30;;;23.30;52.50;;;;;;6271265;28;20053;-64
2022/06/29 03:06:29;;;;;;;0.35;0.32;;;23.20;52.40;;;;;;6270075;28;20146;-65
2022/06/29 03:09:30;;;;;;;0.30;0.30;;;23.20;52.40;;;;;;6269874;28;20090;-65
2022/06/29 03:12:31;;;;;;;0.32;0.32;;;23.30;52.50;;;;;;6271169;28;20028;-65
2022/06/29 03:15:31;;;;;;;0.30;0.30;;;23.20;52.40;;;;;;6271160;28;20406;-65
2022/06/29 03:18:32;;;;;;;0.70;0.50;;;23.20;52.40;;;;;;6271224;28;20040;-65
2022/06/29 03:21:33;;;;;;;0.43;0.38;;;23.30;52.50;;;;;;6270966;28;20032;-65
2022/06/29 03:24:33;;;;;;;0.30;0.30;;;23.20;52.40;;;;;;6270805;28;20412;-65
2022/06/29 03:27:34;;;;;;;0.40;0.40;;;23.20;52.40;;;;;;6269358;28;20051;-65
2022/06/29 03:30:35;;;;;;;0.30;0.30;;;23.20;52.40;;;;;;6270563;28;20113;-65
2022/06/29 03:33:35;;;;;;;0.75;0.35;;;23.20;52.50;;;;;;6269415;28;20017;-65
2022/06/29 03:36:36;;;;;;;0.30;0.30;;;23.30;52.60;;;;;;6270670;28;20080;-65
2022/06/29 03:39:38;;;;;;;0.65;0.43;;;23.20;52.50;;;;;;6269050;28;20484;-67
2022/06/29 03:42:38;;;;;;;0.65;0.50;;;23.20;52.50;;;;;;6270847;28;20594;-67
2022/06/29 03:45:39;;;;;;;0.73;0.50;;;23.20;52.50;;;;;;6268853;28;20037;-67
2022/06/29 03:48:40;;;;;;;0.30;0.30;;;23.20;52.50;;;;;;6271627;28;20020;-67
2022/06/29 03:51:41;;;;;;;0.52;0.30;;;23.20;52.50;;;;;;6271268;28;20032;-67
2022/06/29 03:54:42;;;;;;;0.82;0.40;;;23.20;52.50;;;;;;6271215;28;20021;-67
2022/06/29 03:57:43;;;;;;;0.47;0.30;;;23.20;52.50;;;;;;6270166;28;20017;-67
2022/06/29 04:00:43;;;;;;;0.50;0.47;;;23.20;52.50;;;;;;6270353;28;20432;-67
2022/06/29 04:03:44;;;;;;;1.48;0.50;;;23.20;52.50;;;;;;6269979;28;20040;-67
2022/06/29 04:06:45;;;;;;;0.45;0.30;;;23.20;52.50;;;;;;6270432;28;20029;-67
2022/06/29 04:09:45;;;;;;;0.40;0.40;;;23.20;52.50;;;;;;6269801;28;20070;-67
2022/06/29 04:12:46;;;;;;;0.30;0.30;;;23.20;52.50;;;;;;6270157;28;20049;-67
2022/06/29 04:15:47;;;;;;;0.47;0.30;;;23.20;52.50;;;;;;6270305;28;20612;-66
2022/06/29 04:18:47;;;;;;;0.30;0.30;;;23.20;52.50;;;;;;6268763;28;20047;-67
2022/06/29 04:21:49;;;;;;;0.30;0.30;;;23.20;52.50;;;;;;6270054;28;20033;-67
2022/06/29 04:24:50;;;;;;;0.38;0.38;;;23.20;52.50;;;;;;6270130;28;20025;-67
2022/06/29 04:27:50;;;;;;;0.45;0.40;;;23.20;52.50;;;;;;6268495;28;20033;-67
2022/06/29 04:30:51;;;;;;;0.65;0.50;;;23.20;52.50;;;;;;6269757;28;20048;-67
2022/06/29 04:33:52;;;;;;;0.50;0.50;;;23.20;52.50;;;;;;6269460;28;20522;-67
2022/06/29 04:36:53;;;;;;;0.57;0.40;;;23.20;52.50;;;;;;6271808;28;20044;-67
2022/06/29 04:39:53;;;;;;;0.40;0.40;;;23.20;52.50;;;;;;6269494;28;20493;-66
2022/06/29 04:42:54;;;;;;;0.40;0.40;;;23.20;52.50;;;;;;6269669;28;20090;-67
2022/06/29 04:49:17;;;;;;;0.20;0.20;;;23.20;52.60;;;;;;6270451;28;20032;-65
2022/06/29 04:52:17;;;;;;;0.32;0.32;;;23.20;52.50;;;;;;6267853;28;20118;-66
2022/06/29 04:55:18;;;;;;;0.28;0.28;;;23.20;52.60;;;;;;6268456;28;20028;-66
2022/06/29 04:58:19;;;;;;;0.65;0.50;;;23.20;52.60;;;;;;6269288;28;20024;-67
2022/06/29 05:01:24;;;;;;;0.40;0.40;;;23.20;52.60;;;;;;6264767;28;20049;-66
2022/06/29 05:04:25;;;;;;;0.30;0.30;;;23.20;52.60;;;;;;6254294;28;20553;-66
2022/06/29 05:07:25;;;;;;;0.30;0.30;;;23.20;52.60;;;;;;6267919;28;20075;-67
2022/06/29 05:10:26;;;;;;;0.30;0.30;;;23.20;52.60;;;;;;6267679;28;20033;-66
2022/06/29 05:13:27;;;;;;;0.45;0.30;;;23.20;52.60;;;;;;6267478;28;20021;-66
2022/06/29 05:16:28;;;;;;;0.40;0.30;;;23.20;52.60;;;;;;6268190;28;20623;-67
2022/06/29 05:19:28;;;;;;;0.60;0.30;;;23.20;52.60;;;;;;6267839;28;20074;-67
2022/06/29 05:22:29;;;;;;;0.38;0.32;;;23.20;52.60;;;;;;6268065;28;20033;-67
2022/06/29 05:25:31;;;;;;;0.30;0.30;;;23.20;52.60;;;;;;6267569;28;20033;-67
2022/06/29 05:28:33;;;;;;;0.40;0.40;;;23.20;52.60;;;;;;6268064;28;20032;-66
2022/06/29 05:31:34;;;;;;;0.30;0.20;;;23.20;52.60;;;;;;6268161;28;20024;-67
2022/06/29 05:34:34;;;;;;;0.25;0.25;;;23.20;52.60;;;;;;6267983;28;20056;-66
2022/06/29 05:37:36;;;;;;;0.90;0.57;;;23.20;52.60;;;;;;6267634;28;20021;-67
2022/06/29 05:40:37;;;;;;;0.30;0.30;;;23.20;52.60;;;;;;6267981;28;20445;-66
2022/06/29 05:43:37;;;;;;;0.38;0.30;;;23.20;52.60;;;;;;6267527;28;20120;-66
2022/06/29 05:46:38;;;;;;;0.28;0.28;;;23.20;52.60;;;;;;6266538;28;20527;-67
2022/06/29 05:49:38;;;;;;;0.20;0.20;;;23.20;52.60;;;;;;6268075;28;20474;-66
2022/06/29 05:52:40;;;;;;;0.57;0.47;;;23.20;52.60;;;;;;6267456;28;20017;-66
2022/06/29 05:55:41;;;;;;;0.30;0.30;;;23.20;52.60;;;;;;6267396;28;20029;-67
2022/06/29 05:58:41;;;;;;;0.30;0.30;;;23.20;52.60;;;;;;6267419;28;20075;-65
2022/06/29 06:01:42;;;;;;;0.30;0.30;;;23.20;52.60;;;;;;6255258;28;20080;-66
2022/06/29 06:04:43;;;;;;;0.40;0.40;;;23.20;52.60;;;;;;6258359;28;20435;-66
2022/06/29 06:07:44;;;;;;;0.43;0.30;;;23.20;52.60;;;;;;6269925;28;20334;-67
2022/06/29 06:10:45;;;;;;;0.32;0.32;;;23.20;52.60;;;;;;6268024;28;20112;-67
2022/06/29 06:13:46;;;;;;;0.50;0.38;;;23.20;52.60;;;;;;6269517;28;20029;-66
2022/06/29 06:16:47;;;;;;;0.38;0.38;;;23.20;52.60;;;;;;6269682;28;20025;-66
2022/06/29 06:19:48;;;;;;;0.60;0.38;;;23.20;52.60;;;;;;6268226;28;20021;-67
2022/06/29 06:22:48;;;;;;;0.70;0.30;;;23.20;52.60;;;;;;6269387;28;20470;-66
2022/06/29 06:25:49;;;;;;;0.20;0.20;;;23.20;52.60;;;;;;6270978;28;20032;-67
2022/06/29 06:28:52;;;;;;;0.20;0.20;;;23.20;52.60;;;;;;6274249;28;20378;-66
2022/06/29 06:31:52;;;;;;;0.25;0.25;;;23.20;52.60;;;;;;6274355;28;20155;-67
2022/06/29 06:34:53;;;;;;;0.75;0.50;;;23.20;52.70;;;;;;6272565;28;20417;-67
2022/06/29 06:37:54;;;;;;;0.52;0.40;;;23.20;52.60;;;;;;6274491;28;20033;-66
2022/06/29 06:44:14;;;;;;;0.65;0.43;;;23.20;52.60;;;;;;6273917;28;20045;-67
2022/06/29 06:47:15;;;;;;;0.50;0.45;;;23.20;52.60;;;;;;6273639;28;20040;-67
2022/06/29 06:50:15;;;;;;;0.50;0.50;;;23.20;52.60;;;;;;6273794;28;20021;-67
2022/06/29 06:53:16;;;;;;;0.90;0.40;;;23.20;52.60;;;;;;6274368;28;20462;-67
2022/06/29 06:56:17;;;;;;;0.50;0.45;;;23.20;52.60;;;;;;6274134;28;20033;-67
2022/06/29 06:59:18;;;;;;;0.70;0.50;;;23.20;52.60;;;;;;6273714;28;20025;-67
2022/06/29 07:02:20;;;;;;;0.40;0.40;;;23.20;52.60;;;;;;6273721;28;20032;-66
2022/06/29 07:05:21;;;;;;;1.17;0.47;;;23.20;52.60;;;;;;6273459;28;20021;-67
2022/06/29 07:08:22;;;;;;;0.60;0.35;;;23.20;53.40;;;;;;6272469;28;20036;-67
2022/06/29 07:11:22;;;;;;;0.60;0.40;;;23.20;52.70;;;;;;6273168;28;20103;-67
2022/06/29 07:14:23;;;;;;;1.27;0.40;;;23.20;52.70;;;;;;6282361;28;20471;-67
2022/06/29 07:17:24;;;;;;;0.35;0.35;;;23.20;52.70;;;;;;6273170;28;20429;-67
2022/06/29 07:20:28;;;;;;;0.55;0.40;;;23.20;52.70;;;;;;6259306;28;20060;-67
2022/06/29 07:23:29;;;;;;;0.63;0.40;;;23.20;52.70;;;;;;6272963;28;20029;-67
2022/06/29 07:26:29;;;;;;;0.60;0.50;;;23.20;52.70;;;;;;6272533;28;20136;-66
2022/06/29 07:29:30;;;;;;;0.50;0.43;;;23.20;52.70;;;;;;6273367;28;20025;-67
2022/06/29 07:32:31;;;;;;;0.30;0.30;;;23.20;52.70;;;;;;6271646;28;20122;-65
2022/06/29 07:35:33;;;;;;;0.40;0.30;;;23.20;52.70;;;;;;6273580;28;20063;-67
2022/06/29 07:38:35;;;;;;;0.30;0.30;;;23.20;52.70;;;;;;6271818;28;20033;-67
2022/06/29 07:41:36;;;;;;;0.20;0.20;;;23.20;52.70;;;;;;6272976;28;20025;-67
2022/06/29 07:44:36;;;;;;;0.30;0.30;;;23.20;52.80;;;;;;6271539;28;20045;-66
2022/06/29 07:47:37;;;;;;;0.50;0.40;;;23.20;52.70;;;;;;6272140;28;20040;-67
2022/06/29 07:50:39;;;;;;;0.73;0.40;;;23.20;52.70;;;;;;6272317;28;20029;-67
2022/06/29 07:53:39;;;;;;;0.65;0.50;;;23.20;52.70;;;;;;6272485;28;20029;-66
2022/06/29 07:56:40;;;;;;;0.30;0.30;;;23.20;52.70;;;;;;6272531;28;20036;-67
2022/06/29 07:59:41;;;;;;;0.50;0.50;;;23.20;52.70;;;;;;6272356;28;20071;-66
2022/06/29 08:02:42;;;;;;;0.40;0.38;;;23.20;52.70;;;;;;6270939;28;20025;-67
2022/06/29 08:05:45;;;;;;;0.40;0.30;;;23.20;52.70;;;;;;6271946;28;20047;-66
2022/06/29 08:08:46;;;;;;;0.40;0.40;;;23.20;52.70;;;;;;6271704;28;20029;-66
2022/06/29 08:11:47;;;;;;;0.22;0.20;;;23.20;52.70;;;;;;6271879;28;20712;-67
2022/06/29 08:14:48;;;;;;;0.30;0.30;;;23.20;52.70;;;;;;6271470;28;20053;-67
2022/06/29 08:17:49;;;;;;;0.70;0.50;;;23.20;52.70;;;;;;6270555;28;20052;-67
2022/06/29 08:20:50;;;;;;;1.00;0.40;;;23.20;52.70;;;;;;6271606;28;20032;-67
2022/06/29 08:23:50;;;;;;;0.30;0.30;;;23.20;52.70;;;;;;6271937;28;20029;-67
2022/06/29 08:26:51;;;;;;;0.40;0.40;;;23.20;52.80;;;;;;6271458;28;20096;-67
2022/06/29 08:29:52;;;;;;;0.70;0.45;;;23.20;53.50;;;;;;6272224;28;20547;-67
2022/06/29 08:32:53;;;;;;;0.40;0.30;;;23.20;52.70;;;;;;6270063;28;20060;-67
2022/06/29 08:35:53;;;;;;;0.60;0.43;;;23.20;52.70;;;;;;6270360;28;20059;-67
2022/06/29 08:38:54;;;;;;;0.50;0.50;;;23.20;52.80;;;;;;6270980;28;20082;-66
2022/06/29 08:41:59;;;;;;;0.47;0.47;;;23.20;52.80;;;;;;6270991;28;20029;-67
2022/06/29 08:45:00;;;;;;;0.30;0.30;;;23.20;52.80;;;;;;6271042;28;20099;-67
2022/06/29 08:48:01;;;;;;;0.50;0.40;;;23.20;52.80;;;;;;6270733;28;20036;-67
2022/06/29 08:51:03;;;;;;;0.50;0.32;;;23.20;52.80;;;;;;6269948;28;20036;-67
2022/06/29 08:54:06;;;;;;;0.30;0.20;;;23.20;52.80;;;;;;6270788;28;20021;-67
2022/06/29 08:57:08;;;;;;;0.30;0.22;;;23.20;52.80;;;;;;6271192;28;20045;-67
2022/06/29 09:00:11;;;;;;;0.60;0.47;;;23.20;52.80;;;;;;6270435;28;20032;-66
2022/06/29 09:03:14;;;;;;;0.40;0.35;;;23.20;52.80;;;;;;6271185;28;20449;-67
2022/06/29 09:06:14;;;;;;;0.88;0.50;;;23.20;52.80;;;;;;6269782;28;20056;-67
2022/06/29 09:09:15;;;;;;;0.35;0.22;;;23.20;52.80;;;;;;6269974;28;20028;-67
2022/06/29 09:12:18;;;;;;;1.85;0.40;;;23.20;52.80;;;;;;6270904;28;20055;-67
2022/06/29 09:15:34;;;;;;;0.30;0.30;;;23.20;52.80;;;;;;6269454;28;20029;-67
2022/06/29 09:18:34;;;;;;;0.40;0.30;;;23.20;52.80;;;;;;6269549;28;20107;-67
2022/06/29 09:21:44;;;;;;;0.30;0.30;;;23.20;52.80;;;;;;6271280;28;20047;-67
2022/06/29 09:24:46;;;;;;;0.47;0.47;;;23.20;52.80;;;;;;6270705;28;20048;-67
2022/06/29 09:27:47;;;;;;;0.20;0.20;;;23.20;52.80;;;;;;6270513;28;20032;-67
2022/06/29 09:30:48;;;;;;;0.38;0.38;;;23.20;52.80;;;;;;6271318;28;20028;-67
2022/06/29 09:33:49;;;;;;;0.30;0.30;;;23.20;52.80;;;;;;6270647;28;20471;-67
2022/06/29 09:36:56;;;;;;;0.43;0.20;;;23.20;53.50;;;;;;6269774;28;20021;-67
2022/06/29 09:39:57;;;;;;;0.40;0.40;;;23.20;52.80;;;;;;6270414;28;20025;-67
2022/06/29 09:42:58;;;;;;;0.30;0.30;;;23.20;52.80;;;;;;6270294;28;20090;-67
2022/06/29 09:46:02;;;;;;;0.45;0.40;;;23.20;52.80;;;;;;6270445;28;20017;-67
2022/06/29 09:49:04;;;;;;;0.60;0.30;;;23.20;53.50;;;;;;6271242;28;20118;-67
2022/06/29 09:52:07;;;;;;;0.50;0.40;;;23.20;52.80;;;;;;6270451;28;20059;-67
2022/06/29 09:55:11;;;;;;;0.52;0.43;;;23.20;52.80;;;;;;6270442;28;20035;-67
2022/06/29 09:58:13;;;;;;;0.40;0.40;;;23.20;52.80;;;;;;6270302;28;20021;-67
2022/06/29 10:04:35;;;;;;;0.30;0.30;;;23.20;52.80;;;;;;6270701;28;20078;-67
2022/06/29 10:07:38;;;;;;;0.30;0.30;;;23.20;52.80;;;;;;6270321;28;20071;-67
2022/06/29 10:10:43;;;;;;;0.43;0.40;;;23.20;52.80;;;;;;6270168;28;20029;-67
2022/06/29 10:13:47;;;;;;;0.30;0.30;;;23.20;52.80;;;;;;6269856;28;20040;-67
2022/06/29 10:16:57;;;;;;;0.30;0.30;;;23.20;52.90;;;;;;6268107;28;20029;-67
2022/06/29 10:20:40;;;;;;;0.50;0.40;;;23.20;52.90;;;;;;6269936;28;20021;-67
2022/06/29 10:23:46;;;;;;;0.38;0.30;;;23.20;52.80;;;;;;6269691;28;20478;-67
2022/06/29 10:26:49;;;;;;;0.38;0.30;;;23.20;52.90;;;;;;6269758;28;20036;-67
2022/06/29 10:29:50;;;;;;;0.40;0.40;;;23.20;52.90;;;;;;6269838;28;20049;-67
2022/06/29 10:32:51;;;;;;;0.85;0.40;;;23.20;52.90;;;;;;6269941;28;20031;-67
2022/06/29 10:36:07;;;;;;;0.38;0.38;;;23.20;52.90;;;;;;6269041;28;20082;-67
2022/06/29 10:39:11;;;;;;;0.85;0.30;;;23.20;52.90;;;;;;6269344;28;20028;-67
2022/06/29 10:45:44;;;;;;;0.20;0.20;;;23.20;52.90;;;;;;6269662;28;20041;-67
2022/06/29 10:49:05;;;;;;;;;;;23.20;52.90;;;;;;6270088;28;20025;-67
2022/06/29 10:52:06;;;;;;;1.05;0.40;;;23.20;52.90;;;;;;6269769;28;19999;-67
2022/06/29 10:55:08;;;;;;;0.73;0.40;;;23.20;52.90;;;;;;6270036;28;20013;-65
2022/06/29 10:58:10;;;;;;;0.75;0.40;;;23.20;52.90;;;;;;6268264;28;20024;-65
2022/06/29 11:01:11;;;;;;;0.30;0.30;;;23.20;52.90;;;;;;6269247;28;20021;-67
2022/06/29 11:04:20;;;;;;;0.22;0.22;;;23.20;52.90;;;;;;6271008;28;20102;-67
2022/06/29 11:14:04;;;;;;;0.30;0.30;;;23.20;52.90;;;;;;6274941;28;20033;-67
2022/06/29 11:17:04;;;;;;;0.30;0.20;;;23.20;52.90;;;;;;6273756;28;20052;-67
2022/06/29 11:20:22;;;;;;;0.30;0.30;;;23.20;52.90;;;;;;6273918;28;20017;-67
2022/06/29 11:23:27;;;;;;;0.30;0.30;;;23.20;52.90;;;;;;6274222;28;20044;-67
2022/06/29 11:26:28;;;;;;;0.32;0.32;;;23.20;52.90;;;;;;6273916;28;20032;-67
2022/06/29 11:29:30;;;;;;;0.20;0.20;;;23.20;52.90;;;;;;6274569;28;20398;-67
2022/06/29 11:32:39;;;;;;;0.32;0.20;;;23.20;53.00;;;;;;6272895;28;20048;-67
2022/06/29 11:35:42;;;;;;;0.25;0.25;;;23.20;52.90;;;;;;6273396;28;20017;-67
2022/06/29 11:38:52;;;;;;;0.28;0.28;;;23.20;52.90;;;;;;6273010;28;20482;-67
2022/06/29 11:45:12;;;;;;;0.40;0.20;;;23.20;53.00;;;;;;6272819;28;20044;-67
2022/06/29 11:48:30;;;;;;;0.30;0.30;;;23.20;52.90;;;;;;6272518;28;20079;-67
2022/06/29 11:51:30;;;;;;;0.45;0.40;;;23.20;53.00;;;;;;6272841;28;20025;-68
2022/06/29 11:55:01;;;;;;;0.20;0.20;;;23.20;53.00;;;;;;6271360;28;20461;-67
2022/06/29 11:58:03;;;;;;;0.20;0.20;;;23.20;53.00;;;;;;6243561;28;20363;-67
2022/06/29 12:01:08;;;;;;;0.35;0.30;;;23.20;53.00;;;;;;6247161;28;20114;-67
2022/06/29 12:04:09;;;;;;;;;;;23.20;52.90;;;;;;6247100;28;20025;-68
2022/06/29 12:07:12;;;;;;;0.32;0.30;;;23.20;52.90;;;;;;6248012;28;20351;-67
2022/06/29 12:10:13;;;;;;;0.13;0.13;;;23.20;53.00;;;;;;6248028;28;20029;-67
2022/06/29 12:13:14;;;;;;;1.17;0.30;;;23.20;53.00;;;;;;6248211;28;20022;-67
2022/06/29 12:16:15;;;;;;;0.30;0.30;;;23.20;53.00;;;;;;6256135;28;20101;-67
2022/06/29 12:19:16;;;;;;;0.20;0.20;;;23.20;53.00;;;;;;6272371;28;20032;-67
2022/06/29 12:22:19;;;;;;;0.47;0.30;;;23.20;53.00;;;;;;6271619;28;20033;-67
2022/06/29 12:25:22;;;;;;;0.30;0.30;;;23.20;53.00;;;;;;6271245;28;20048;-67
2022/06/29 12:28:23;;;;;;;0.20;0.20;;;23.20;53.00;;;;;;6271937;28;20025;-67
2022/06/29 12:31:24;;;;;;;0.20;0.20;;;23.20;53.00;;;;;;6272551;28;20031;-67
2022/06/29 12:34:24;;;;;;;0.43;0.30;;;23.20;53.00;;;;;;6272628;28;20021;-67
2022/06/29 12:37:25;;;;;;;0.20;0.20;;;23.20;53.00;;;;;;6271848;28;20100;-67
2022/06/29 12:40:27;;;;;;;0.30;0.30;;;23.20;53.00;;;;;;6272117;28;20028;-67
2022/06/29 12:43:27;;;;;;;0.20;0.20;;;23.20;53.00;;;;;;6271682;28;20051;-67
2022/06/29 12:46:31;;;;;;;0.30;0.30;;;23.20;53.00;;;;;;6271962;28;20021;-67
2022/06/29 12:49:32;;;;;;;2.65;0.20;;;23.20;53.00;;;;;;6271760;28;20032;-67
2022/06/29 12:52:33;;;;;;;0.40;0.40;;;23.20;53.00;;;;;;6271891;28;20025;-67
2022/06/29 12:55:33;;;;;;;0.57;0.30;;;23.20;53.00;;;;;;6271062;28;20028;-67
2022/06/29 12:58:36;;;;;;;0.20;0.20;;;23.20;53.00;;;;;;6271580;28;20059;-67
2022/06/29 13:01:37;;;;;;;0.32;0.30;;;23.20;53.00;;;;;;6271460;28;20025;-67
2022/06/29 13:04:37;;;;;;;1.05;0.32;;;23.20;53.00;;;;;;6271483;28;20029;-67
2022/06/29 13:07:39;;;;;;;0.20;0.20;;;23.20;53.00;;;;;;6271472;28;20039;-67
2022/06/29 13:10:39;;;;;;;0.40;0.30;;;23.20;53.00;;;;;;6271493;28;20053;-67
2022/06/29 13:13:40;;;;;;;0.20;0.20;;;23.20;53.00;;;;;;6270849;28;20493;-67
2022/06/29 13:16:42;;;;;;;0.30;0.30;;;23.20;53.00;;;;;;6271284;28;20017;-67
2022/06/29 13:19:43;;;;;;;0.22;0.20;;;23.20;53.00;;;;;;6270956;28;20036;-67
2022/06/29 13:22:44;;;;;;;0.30;0.30;;;23.20;53.00;;;;;;6270964;28;20397;-67
2022/06/29 13:25:45;;;;;;;0.17;0.17;;;23.20;53.70;;;;;;6270743;28;20040;-67
2022/06/29 13:28:47;;;;;;;0.30;0.30;;;23.20;53.00;;;;;;6271682;28;20020;-67
2022/06/29 13:31:47;;;;;;;0.15;0.15;;;23.20;53.00;;;;;;6269401;28;20551;-67
2022/06/29 13:34:50;;;;;;;0.20;0.20;;;23.20;53.00;;;;;;6269916;28;20020;-67
2022/06/29 13:37:53;;;;;;;0.20;0.20;;;23.20;53.00;;;;;;6270711;28;20017;-67
2022/06/29 13:40:56;;;;;;;0.20;0.20;;;23.20;53.00;;;;;;6269763;28;20032;-66
2022/06/29 13:43:57;;;;;;;0.13;0.13;;;23.20;53.00;;;;;;6268813;28;20048;-66
2022/06/29 13:46:58;;;;;;;0.30;0.30;;;23.20;53.00;;;;;;6268575;28;20060;-66
2022/06/29 13:49:59;;;;;;;0.20;0.20;;;23.20;53.10;;;;;;6269693;28;20482;-67
2022/06/29 13:53:01;;;;;;;0.32;0.30;;;23.20;53.00;;;;;;6269631;28;20017;-67
2022/06/29 13:56:02;;;;;;;0.20;0.20;;;23.20;53.10;;;;;;6269800;28;20066;-67
2022/06/29 13:59:02;;;;;;;0.30;0.30;;;23.20;53.10;;;;;;6268298;28;20071;-66
2022/06/29 14:02:04;;;;;;;0.30;0.20;;;23.20;53.10;;;;;;6268336;28;20025;-66
2022/06/29 14:05:05;;;;;;;0.20;0.20;;;23.20;53.10;;;;;;6268295;28;20765;-66
2022/06/29 14:08:06;;;;;;;0.30;0.20;;;23.20;53.10;;;;;;6269558;28;20107;-66
2022/06/29 14:11:07;;;;;;;0.30;0.30;;;23.20;53.10;;;;;;6269231;28;20540;-67
2022/06/29 14:14:07;;;;;;;0.20;0.20;;;23.20;53.10;;;;;;6269563;28;20053;-66
2022/06/29 14:17:08;;;;;;;0.30;0.20;;;23.20;53.10;;;;;;6269058;28;20021;-65
2022/06/29 14:20:09;;;;;;;0.40;0.40;;;23.20;53.10;;;;;;6268189;28;20529;-67
2022/06/29 14:23:10;;;;;;;0.20;0.20;;;23.20;53.10;;;;;;6269002;28;20104;-66
2022/06/29 14:26:10;;;;;;;0.28;0.28;;;23.20;53.10;;;;;;6269428;28;20025;-66
2022/06/29 14:29:11;;;;;;;0.28;0.28;;;23.20;53.10;;;;;;6269311;28;20025;-66
2022/06/29 14:32:12;;;;;;;0.20;0.15;;;23.20;53.10;;;;;;6269250;28;20029;-66
2022/06/29 14:35:13;;;;;;;0.22;0.22;;;23.20;53.10;;;;;;6268833;28;20056;-67
2022/06/29 14:38:14;;;;;;;0.10;0.10;;;23.20;53.10;;;;;;6268353;28;20029;-67
2022/06/29 14:41:16;;;;;;;0.30;0.30;;;23.20;53.10;;;;;;6269341;28;20036;-67
2022/06/29 14:44:17;;;;;;;0.25;0.25;;;23.10;53.00;;;;;;6268318;28;20060;-67
2022/06/29 14:47:17;;;;;;;0.20;0.20;;;23.20;53.10;;;;;;6272695;28;20033;-66
2022/06/29 14:50:21;;;;;;;0.20;0.20;;;23.20;53.10;;;;;;6274033;28;20025;-67
2022/06/29 14:53:22;;;;;;;0.28;0.20;;;23.20;53.10;;;;;;6273355;28;20025;-67
2022/06/29 14:56:22;;;;;;;0.20;0.20;;;23.20;53.10;;;;;;6273420;28;20021;-67
2022/06/29 14:59:23;;;;;;;0.20;0.20;;;23.20;53.10;;;;;;6274063;28;20445;-66
2022/06/29 15:02:24;;;;;;;1.13;0.20;;;23.20;53.10;;;;;;6272158;28;20116;-66
2022/06/29 15:05:25;;;;;;;0.38;0.30;;;23.20;53.10;;;;;;6273715;28;20029;-67
2022/06/29 15:08:26;;;;;;;0.30;0.20;;;23.20;53.10;;;;;;6272533;28;20039;-67
2022/06/29 15:11:30;;;;;;;0.20;0.20;;;23.20;53.10;;;;;;6274057;28;20028;-67
2022/06/29 15:14:31;;;;;;;0.28;0.28;;;23.20;53.10;;;;;;6273884;28;20070;-66
2022/06/29 15:17:31;;;;;;;0.20;0.20;;;23.20;53.10;;;;;;6272198;28;20513;-66
2022/06/29 15:20:32;;;;;;;0.10;0.10;;;23.20;53.10;;;;;;6273685;28;20029;-66
2022/06/29 15:23:33;;;;;;;0.20;0.20;;;23.10;53.00;;;;;;6273932;28;20039;-67
2022/06/29 15:26:34;;;;;;;0.25;0.25;;;23.20;53.10;;;;;;6274729;28;20051;-67
2022/06/29 15:29:37;;;;;;;0.20;0.20;;;23.20;53.10;;;;;;6274040;28;20148;-68
2022/06/29 15:32:37;;;;;;;0.75;0.30;;;23.20;53.10;;;;;;6274474;28;20039;-67
2022/06/29 15:38:57;;;;;;;0.17;0.17;;;23.20;53.10;;;;;;6274634;28;20028;-67
2022/06/29 15:41:58;;;;;;;0.30;0.30;;;23.20;53.10;;;;;;6271965;28;20036;-67
2022/06/29 15:44:59;;;;;;;0.20;0.20;;;23.20;53.80;;;;;;6272729;28;20053;-67
2022/06/29 15:47:59;;;;;;;0.10;0.10;;;23.20;53.10;;;;;;6273957;28;20032;-67
2022/06/29 15:51:00;;;;;;;0.20;0.20;;;23.20;53.10;;;;;;6272586;28;20397;-66
2022/06/29 15:57:20;;;;;;;0.10;0.10;;;23.20;53.10;;;;;;6271960;28;20029;-67
2022/06/29 16:00:20;;;;;;;0.22;0.20;;;23.10;53.10;;;;;;6272410;28;20117;-67
2022/06/29 16:03:22;;;;;;;0.10;0.10;;;23.20;53.10;;;;;;6272537;28;20485;-67
2022/06/29 16:06:24;;;;;;;0.10;0.10;;;23.20;53.10;;;;;;6272699;28;20032;-67
2022/06/29 16:09:24;;;;;;;0.43;0.20;;;23.20;53.10;;;;;;6271194;28;20036;-67
2022/06/29 16:12:26;;;;;;;0.20;0.20;;;23.20;53.10;;;;;;6271045;28;20110;-66
2022/06/29 16:15:26;;;;;;;0.20;0.20;;;23.20;53.10;;;;;;6269567;28;20021;-66
2022/06/29 16:18:27;;;;;;;0.20;0.20;;;23.20;53.80;;;;;;6269902;28;20029;-66
2022/06/29 16:21:28;;;;;;;0.17;0.17;;;23.20;53.10;;;;;;6269945;28;20029;-67